createdAt,value
2023-05-24T00:00:12.995Z,101442.34
2023-05-24T00:01:16.747Z,101446.38
2023-05-24T00:02:20.174Z,101450.44
2023-05-24T00:03:22.139Z,101449.63
2023-05-24T00:04:25.510Z,101458.72
2023-05-24T00:05:31.338Z,101463.25
2023-05-24T00:06:35.017Z,101463.09
2023-05-24T00:07:37.974Z,101455.50
2023-05-24T00:08:39.815Z,101459.88
2023-05-24T00:09:41.618Z,101459.06
2023-05-24T00:10:44.064Z,101454.28
2023-05-24T00:11:46.120Z,101467.31
2023-05-24T00:12:48.081Z,101463.91
2023-05-24T00:13:49.957Z,101467.63
2023-05-24T00:14:51.851Z,101471.19
2023-05-24T00:15:53.800Z,101464.06
2023-05-24T00:16:55.840Z,101437.19
2023-05-24T00:17:57.953Z,101474.03
2023-05-24T00:18:59.839Z,101467.78
2023-05-24T00:20:01.733Z,101449.56
2023-05-24T00:21:03.789Z,101462.56
2023-05-24T00:22:05.658Z,101461.69
2023-05-24T00:23:08.067Z,101459.19
2023-05-24T00:24:11.196Z,101466.25
2023-05-24T00:25:13.261Z,101477.06
2023-05-24T00:26:15.175Z,101478.91
2023-05-24T00:27:24.457Z,101482.47
2023-05-24T00:28:28.155Z,101490.56
2023-05-24T00:29:32.217Z,101492.38
2023-05-24T00:30:35.433Z,101488.00
2023-05-24T00:31:37.385Z,101489.88
2023-05-24T00:32:39.394Z,101489.88
2023-05-24T00:33:41.552Z,101502.66
2023-05-24T00:34:43.457Z,101505.34
2023-05-24T00:35:46.498Z,101500.41
2023-05-24T00:36:49.231Z,101505.50
2023-05-24T00:37:51.114Z,101510.38
2023-05-24T00:38:53.770Z,101514.44
2023-05-24T00:39:55.996Z,101510.06
2023-05-24T00:40:57.924Z,101509.19
2023-05-24T00:42:00.060Z,101499.91
2023-05-24T00:43:02.176Z,101504.81
2023-05-24T00:44:04.012Z,101502.09
2023-05-24T00:45:06.760Z,101510.38
2023-05-24T00:46:18.158Z,101509.38
2023-05-24T00:47:20.229Z,101505.50
2023-05-24T00:48:23.808Z,101509.19
2023-05-24T00:49:26.513Z,101508.38
2023-05-24T00:50:28.632Z,101513.06
2023-05-24T00:51:32.600Z,101504.31
2023-05-24T00:52:34.610Z,101502.28
2023-05-24T00:53:37.835Z,101496.22
2023-05-24T00:54:40.870Z,101503.31
2023-05-24T00:55:42.716Z,101502.44
2023-05-24T00:56:46.455Z,101502.44
2023-05-24T00:57:48.464Z,101495.34
2023-05-24T00:58:54.924Z,101494.53
2023-05-24T00:59:57.154Z,101482.38
2023-05-24T01:01:00.068Z,101486.44
2023-05-24T01:02:02.152Z,101478.34
2023-05-24T01:03:05.457Z,101476.66
2023-05-24T01:04:08.367Z,101473.94
2023-05-24T01:05:13.774Z,101470.38
2023-05-24T01:06:16.434Z,101476.66
2023-05-24T01:07:56.544Z,101476.69
2023-05-24T01:09:23.552Z,101479.06
2023-05-24T01:10:36.572Z,101476.19
2023-05-24T01:11:53.928Z,101473.97
2023-05-24T01:13:05.326Z,101476.69
2023-05-24T01:14:29.361Z,101478.50
2023-05-24T01:15:55.840Z,101472.97
2023-05-24T01:17:15.158Z,101473.50
2023-05-24T01:18:26.341Z,101470.41
2023-05-24T01:19:48.940Z,101466.22
2023-05-24T01:20:59.425Z,101468.91
2023-05-24T01:22:28.769Z,101457.78
2023-05-24T01:23:47.619Z,101444.31
2023-05-24T01:25:03.628Z,101449.00
2023-05-24T01:26:21.126Z,101445.63
2023-05-24T01:27:24.118Z,101435.19
2023-05-24T01:28:27.550Z,101445.44
2023-05-24T01:29:31.441Z,101441.19
2023-05-24T01:30:34.187Z,101449.28
2023-05-24T01:31:37.204Z,101438.00
2023-05-24T01:32:39.228Z,101446.91
2023-05-24T01:33:42.929Z,101444.53
2023-05-24T01:34:44.906Z,101452.63
2023-05-24T01:35:46.921Z,101450.94
2023-05-24T01:36:48.766Z,101458.03
2023-05-24T01:37:50.801Z,101454.66
2023-05-24T01:38:53.093Z,101453.81
2023-05-24T01:39:55.591Z,101459.22
2023-05-24T01:41:05.959Z,101450.25
2023-05-24T01:42:11.427Z,101460.03
2023-05-24T01:43:23.210Z,101455.34
2023-05-24T01:44:46.556Z,101448.31
2023-05-24T01:46:20.034Z,101451.38
2023-05-24T01:47:27.534Z,101449.69
2023-05-24T01:48:50.927Z,101450.00
2023-05-24T01:49:57.249Z,101435.31
2023-05-24T01:51:00.844Z,101441.53
2023-05-24T01:52:07.101Z,101434.75
2023-05-24T01:53:14.355Z,101439.34
2023-05-24T01:54:21.143Z,101435.97
2023-05-24T01:55:27.239Z,101422.63
2023-05-24T01:56:31.024Z,101435.28
2023-05-24T01:57:34.905Z,101438.78
2023-05-24T01:58:39.372Z,101436.75
2023-05-24T01:59:44.599Z,101437.09
2023-05-24T02:00:46.731Z,101445.88
2023-05-24T02:01:49.391Z,101443.38
2023-05-24T02:02:52.334Z,101452.47
2023-05-24T02:03:55.586Z,101449.91
2023-05-24T02:04:57.613Z,101418.97
2023-05-24T02:05:59.485Z,101456.16
2023-05-24T02:07:01.649Z,101456.31
2023-05-24T02:08:03.458Z,101454.59
2023-05-24T02:09:05.390Z,101469.78
2023-05-24T02:10:07.743Z,101478.91
2023-05-24T02:11:09.602Z,101478.91
2023-05-24T02:12:11.888Z,101477.19
2023-05-24T02:13:16.350Z,101484.28
2023-05-24T02:14:20.096Z,101477.88
2023-05-24T02:15:22.118Z,101484.28
2023-05-24T02:16:27.001Z,101484.28
2023-05-24T02:17:33.027Z,101483.28
2023-05-24T02:18:35.118Z,101485.97
2023-05-24T02:19:37.301Z,101481.59
2023-05-24T02:20:41.195Z,101481.78
2023-05-24T02:21:43.603Z,101485.47
2023-05-24T02:22:46.336Z,101482.59
2023-05-24T02:23:48.410Z,101482.59
2023-05-24T02:24:50.293Z,101479.91
2023-05-24T02:25:52.164Z,101486.31
2023-05-24T02:26:56.094Z,101483.59
2023-05-24T02:27:58.858Z,101471.22
2023-05-24T02:29:00.875Z,101486.31
2023-05-24T02:30:02.734Z,101482.78
2023-05-24T02:31:04.835Z,101483.06
2023-05-24T02:32:06.772Z,101480.38
2023-05-24T02:33:08.948Z,101481.09
2023-05-24T02:34:11.009Z,101483.94
2023-05-24T02:35:13.231Z,101476.66
2023-05-24T02:36:15.135Z,101477.66
2023-05-24T02:37:16.948Z,101478.53
2023-05-24T02:38:18.763Z,101480.38
2023-05-24T02:39:20.723Z,101475.97
2023-05-24T02:40:22.642Z,101476.84
2023-05-24T02:41:24.512Z,101472.78
2023-05-24T02:42:26.338Z,101477.84
2023-05-24T02:43:28.184Z,101475.97
2023-05-24T02:44:29.991Z,101470.75
2023-05-24T02:45:31.885Z,101472.47
2023-05-24T02:46:33.979Z,101470.75
2023-05-24T02:47:35.879Z,101466.19
2023-05-24T02:48:37.771Z,101459.97
2023-05-24T02:49:39.617Z,101463.69
2023-05-24T02:50:41.783Z,101463.69
2023-05-24T02:51:43.886Z,101455.59
2023-05-24T02:52:45.851Z,101443.09
2023-05-24T02:53:47.859Z,101458.28
2023-05-24T02:54:50.533Z,101454.72
2023-05-24T02:55:54.516Z,101460.81
2023-05-24T02:56:56.807Z,101455.59
2023-05-24T02:57:59.496Z,101462.69
2023-05-24T02:59:01.516Z,101470.75
2023-05-24T03:00:08.391Z,101464.50
2023-05-24T03:01:12.510Z,101471.59
2023-05-24T03:02:15.546Z,101469.75
2023-05-24T03:03:17.515Z,101466.19
2023-05-24T03:04:20.488Z,101463.69
2023-05-24T03:05:22.469Z,101464.50
2023-05-24T03:06:25.630Z,101461.00
2023-05-24T03:07:27.763Z,101469.06
2023-05-24T03:08:29.655Z,101465.38
2023-05-24T03:09:31.616Z,101460.63
2023-05-24T03:10:33.805Z,101472.78
2023-05-24T03:11:35.750Z,101466.38
2023-05-24T03:12:37.678Z,101470.75
2023-05-24T03:13:40.281Z,101467.22
2023-05-24T03:14:42.400Z,101464.00
2023-05-24T03:15:44.297Z,101476.16
2023-05-24T03:16:46.249Z,101474.47
2023-05-24T03:17:48.244Z,101469.06
2023-05-24T03:18:51.985Z,101470.75
2023-05-24T03:19:53.971Z,101469.06
2023-05-24T03:20:55.911Z,101474.47
2023-05-24T03:21:57.762Z,101477.16
2023-05-24T03:22:59.687Z,101476.16
2023-05-24T03:24:01.618Z,101470.09
2023-05-24T03:25:03.736Z,101428.13
2023-05-24T03:26:05.646Z,101469.06
2023-05-24T03:27:08.770Z,101469.06
2023-05-24T03:28:11.150Z,101470.75
2023-05-24T03:29:13.098Z,101472.47
2023-05-24T03:30:17.415Z,101465.38
2023-05-24T03:31:29.349Z,101469.44
2023-05-24T03:32:33.442Z,101462.50
2023-05-24T03:33:35.617Z,101473.28
2023-05-24T03:34:37.561Z,101468.06
2023-05-24T03:35:39.885Z,101465.38
2023-05-24T03:36:42.217Z,101463.50
2023-05-24T03:37:44.582Z,101460.81
2023-05-24T03:38:46.516Z,101465.38
2023-05-24T03:39:48.628Z,101468.06
2023-05-24T03:41:06.492Z,101470.13
2023-05-24T03:42:09.284Z,101465.06
2023-05-24T03:43:12.380Z,101465.06
2023-05-24T03:44:23.128Z,101462.34
2023-05-24T03:45:37.574Z,101472.28
2023-05-24T03:46:41.037Z,101465.59
2023-05-24T03:47:42.913Z,101473.81
2023-05-24T03:48:44.873Z,101468.56
2023-05-24T03:49:47.193Z,101468.75
2023-05-24T03:50:49.191Z,101465.38
2023-05-24T03:51:52.472Z,101456.28
2023-05-24T03:52:54.478Z,101462.50
2023-05-24T03:53:59.345Z,101459.97
2023-05-24T03:55:01.593Z,101457.97
2023-05-24T03:56:03.582Z,101457.09
2023-05-24T03:57:06.784Z,101461.66
2023-05-24T03:58:10.680Z,101446.66
2023-05-24T03:59:12.868Z,101459.66
2023-05-24T04:00:15.337Z,101454.25
2023-05-24T04:01:32.694Z,101452.25
2023-05-24T04:02:38.299Z,101446.53
2023-05-24T04:03:41.357Z,101454.81
2023-05-24T04:04:43.390Z,101451.09
2023-05-24T04:05:45.350Z,101438.75
2023-05-24T04:06:48.046Z,101444.31
2023-05-24T04:07:51.012Z,101445.03
2023-05-24T04:08:54.048Z,101434.72
2023-05-24T04:09:55.974Z,101448.56
2023-05-24T04:10:57.911Z,101443.16
2023-05-24T04:11:59.759Z,101443.16
2023-05-24T04:13:01.748Z,101447.72
2023-05-24T04:14:03.798Z,101438.63
2023-05-24T04:15:07.346Z,101440.31
2023-05-24T04:16:09.896Z,101433.06
2023-05-24T04:17:12.492Z,101430.34
2023-05-24T04:18:14.585Z,101440.00
2023-05-24T04:19:16.499Z,101433.72
2023-05-24T04:20:18.838Z,101429.19
2023-05-24T04:21:21.127Z,101424.63
2023-05-24T04:22:25.709Z,101428.19
2023-05-24T04:23:27.961Z,101426.00
2023-05-24T04:24:29.895Z,101422.63
2023-05-24T04:25:33.570Z,101427.69
2023-05-24T04:26:37.732Z,101426.84
2023-05-24T04:27:40.113Z,101424.84
2023-05-24T04:28:43.162Z,101420.28
2023-05-24T04:29:49.930Z,101419.44
2023-05-24T04:30:52.356Z,101415.75
2023-05-24T04:31:54.314Z,101420.13
2023-05-24T04:32:57.477Z,101410.34
2023-05-24T04:33:59.810Z,101414.56
2023-05-24T04:35:04.467Z,101409.16
2023-05-24T04:36:08.374Z,101411.72
2023-05-24T04:37:10.830Z,101410.84
2023-05-24T04:38:12.902Z,101403.75
2023-05-24T04:39:14.790Z,101418.94
2023-05-24T04:40:16.648Z,101417.94
2023-05-24T04:41:18.494Z,101413.41
2023-05-24T04:42:20.297Z,101420.63
2023-05-24T04:43:22.827Z,101401.56
2023-05-24T04:44:24.764Z,101415.22
2023-05-24T04:45:26.586Z,101408.81
2023-05-24T04:46:29.004Z,101407.00
2023-05-24T04:47:31.618Z,101407.84
2023-05-24T04:48:33.477Z,101403.75
2023-05-24T04:49:35.468Z,101407.84
2023-05-24T04:50:37.778Z,101406.84
2023-05-24T04:51:40.227Z,101404.16
2023-05-24T04:52:42.172Z,101407.00
2023-05-24T04:53:44.167Z,101410.38
2023-05-24T04:54:46.286Z,101382.50
2023-05-24T04:55:49.052Z,101400.59
2023-05-24T04:56:51.658Z,101395.03
2023-05-24T04:57:53.474Z,101395.03
2023-05-24T04:58:55.290Z,101396.88
2023-05-24T04:59:57.525Z,101393.19
2023-05-24T05:00:59.336Z,101398.56
2023-05-24T05:02:01.183Z,101394.03
2023-05-24T05:03:03.946Z,101393.19
2023-05-24T05:04:06.208Z,101395.03
2023-05-24T05:05:08.257Z,101397.75
2023-05-24T05:06:10.559Z,101395.88
2023-05-24T05:07:12.500Z,101396.72
2023-05-24T05:08:14.381Z,101392.16
2023-05-24T05:09:16.266Z,101391.16
2023-05-24T05:10:18.130Z,101392.00
2023-05-24T05:11:20.678Z,101393.72
2023-05-24T05:12:22.601Z,101390.00
2023-05-24T05:13:24.477Z,101393.38
2023-05-24T05:14:26.371Z,101383.41
2023-05-24T05:15:28.306Z,101389.47
2023-05-24T05:16:30.287Z,101387.34
2023-05-24T05:17:32.159Z,101393.41
2023-05-24T05:18:34.727Z,101397.63
2023-05-24T05:19:36.717Z,101387.53
2023-05-24T05:20:38.683Z,101393.44
2023-05-24T05:21:40.668Z,101386.88
2023-05-24T05:22:49.470Z,101390.06
2023-05-24T05:23:51.399Z,101383.31
2023-05-24T05:24:53.402Z,101383.00
2023-05-24T05:25:55.285Z,101386.34
2023-05-24T05:26:57.228Z,101383.38
2023-05-24T05:27:59.148Z,101388.41
2023-05-24T05:29:01.054Z,101386.41
2023-05-24T05:30:02.990Z,101385.19
2023-05-24T05:31:04.987Z,101371.88
2023-05-24T05:32:06.849Z,101378.97
2023-05-24T05:33:09.448Z,101385.72
2023-05-24T05:34:11.445Z,101378.28
2023-05-24T05:35:13.304Z,101369.84
2023-05-24T05:36:16.066Z,101370.38
2023-05-24T05:37:17.854Z,101371.72
2023-05-24T05:38:19.651Z,101358.88
2023-05-24T05:39:21.508Z,101363.94
2023-05-24T05:40:23.365Z,101348.25
2023-05-24T05:41:25.172Z,101357.19
2023-05-24T05:42:27.064Z,101354.19
2023-05-24T05:43:29.265Z,101353.00
2023-05-24T05:44:31.225Z,101356.19
2023-05-24T05:45:33.117Z,101353.34
2023-05-24T05:46:34.988Z,101353.81
2023-05-24T05:47:36.867Z,101356.38
2023-05-24T05:48:38.830Z,101360.41
2023-05-24T05:49:40.751Z,101357.53
2023-05-24T05:50:42.791Z,101359.22
2023-05-24T05:51:46.272Z,101351.09
2023-05-24T05:52:48.140Z,101351.47
2023-05-24T05:53:49.942Z,101341.00
2023-05-24T05:54:52.146Z,101352.94
2023-05-24T05:55:54.070Z,101353.63
2023-05-24T05:56:56.118Z,101349.06
2023-05-24T05:57:57.987Z,101352.59
2023-05-24T05:58:59.806Z,101363.06
2023-05-24T06:00:01.913Z,101352.25
2023-05-24T06:01:14.261Z,101356.13
2023-05-24T06:02:16.213Z,101353.59
2023-05-24T06:03:18.407Z,101356.13
2023-05-24T06:04:20.546Z,101356.97
2023-05-24T06:05:22.479Z,101353.25
2023-05-24T06:06:24.273Z,101354.09
2023-05-24T06:07:26.333Z,101345.31
2023-05-24T06:08:30.922Z,101356.97
2023-05-24T06:09:32.815Z,101353.94
2023-05-24T06:10:34.794Z,101346.81
2023-05-24T06:11:36.828Z,101352.94
2023-05-24T06:12:40.572Z,101352.06
2023-05-24T06:13:42.429Z,101353.75
2023-05-24T06:14:44.381Z,101355.44
2023-05-24T06:15:46.210Z,101356.31
2023-05-24T06:16:48.621Z,101353.59
2023-05-24T06:17:51.970Z,101364.41
2023-05-24T06:19:05.446Z,101358.00
2023-05-24T06:20:11.209Z,101368.44
2023-05-24T06:21:13.851Z,101368.44
2023-05-24T06:22:15.892Z,101363.88
2023-05-24T06:23:17.784Z,101363.88
2023-05-24T06:24:22.966Z,101363.03
2023-05-24T06:25:24.861Z,101353.91
2023-05-24T06:26:27.235Z,101353.06
2023-05-24T06:27:29.088Z,101347.66
2023-05-24T06:28:30.942Z,101355.75
2023-05-24T06:29:32.824Z,101353.91
2023-05-24T06:30:35.045Z,101361.00
2023-05-24T06:31:37.144Z,101352.03
2023-05-24T06:32:39.153Z,101343.94
2023-05-24T06:33:42.712Z,101350.19
2023-05-24T06:34:48.644Z,101345.47
2023-05-24T06:35:50.745Z,101346.28
2023-05-24T06:36:53.071Z,101343.56
2023-05-24T06:37:55.042Z,101340.22
2023-05-24T06:38:56.919Z,101337.34
2023-05-24T06:39:58.800Z,101331.94
2023-05-24T06:41:00.758Z,101318.41
2023-05-24T06:42:02.757Z,101326.34
2023-05-24T06:43:11.336Z,101320.09
2023-05-24T06:44:16.510Z,101320.78
2023-05-24T06:45:18.453Z,101320.78
2023-05-24T06:46:20.880Z,101318.06
2023-05-24T06:47:22.800Z,101320.78
2023-05-24T06:48:24.935Z,101311.66
2023-05-24T06:49:27.381Z,101316.19
2023-05-24T06:50:29.386Z,101303.53
2023-05-24T06:51:33.496Z,101300.84
2023-05-24T06:52:35.848Z,101291.03
2023-05-24T06:53:37.709Z,101299.81
2023-05-24T06:54:39.689Z,101292.53
2023-05-24T06:55:41.773Z,101292.53
2023-05-24T06:56:43.652Z,101297.13
2023-05-24T06:57:45.723Z,101289.34
2023-05-24T06:58:48.073Z,101287.97
2023-05-24T06:59:50.015Z,101287.97
2023-05-24T07:00:52.295Z,101287.97
2023-05-24T07:01:59.393Z,101287.13
2023-05-24T07:03:02.105Z,101276.97
2023-05-24T07:04:04.165Z,101273.25
2023-05-24T07:05:08.375Z,101280.53
2023-05-24T07:06:14.179Z,101275.13
2023-05-24T07:07:16.193Z,101276.66
2023-05-24T07:08:18.018Z,101272.59
2023-05-24T07:09:20.157Z,101281.38
2023-05-24T07:10:22.229Z,101270.25
2023-05-24T07:11:24.201Z,101275.97
2023-05-24T07:12:26.267Z,101279.50
2023-05-24T07:13:28.339Z,101272.22
2023-05-24T07:14:30.139Z,101277.63
2023-05-24T07:15:31.957Z,101281.19
2023-05-24T07:16:33.837Z,101282.06
2023-05-24T07:17:35.938Z,101274.47
2023-05-24T07:18:37.805Z,101273.75
2023-05-24T07:19:39.675Z,101266.00
2023-05-24T07:20:41.846Z,101257.38
2023-05-24T07:21:44.074Z,101276.13
2023-05-24T07:22:46.122Z,101273.44
2023-05-24T07:23:47.969Z,101262.94
2023-05-24T07:24:50.012Z,101264.97
2023-05-24T07:25:52.228Z,101269.34
2023-05-24T07:26:54.133Z,101268.34
2023-05-24T07:27:56.036Z,101270.88
2023-05-24T07:28:57.847Z,101267.31
2023-05-24T07:29:59.633Z,101266.28
2023-05-24T07:31:01.737Z,101262.56
2023-05-24T07:32:04.113Z,101264.25
2023-05-24T07:33:06.045Z,101265.94
2023-05-24T07:34:08.115Z,101240.28
2023-05-24T07:35:13.156Z,101256.81
2023-05-24T07:36:15.906Z,101259.16
2023-05-24T07:37:17.747Z,101260.16
2023-05-24T07:38:19.711Z,101256.44
2023-05-24T07:39:21.615Z,101255.41
2023-05-24T07:40:24.107Z,101254.09
2023-05-24T07:41:27.673Z,101252.72
2023-05-24T07:42:29.659Z,101256.13
2023-05-24T07:43:31.501Z,101270.47
2023-05-24T07:44:33.685Z,101260.50
2023-05-24T07:45:35.656Z,101271.31
2023-05-24T07:46:38.093Z,101264.88
2023-05-24T07:47:39.997Z,101264.03
2023-05-24T07:48:41.912Z,101270.31
2023-05-24T07:49:43.733Z,101269.28
2023-05-24T07:50:48.787Z,101271.97
2023-05-24T07:51:50.727Z,101269.94
2023-05-24T07:52:52.608Z,101269.94
2023-05-24T07:53:54.653Z,101264.53
2023-05-24T07:54:56.564Z,101277.03
2023-05-24T07:55:58.385Z,101258.09
2023-05-24T07:57:00.318Z,101260.81
2023-05-24T07:58:02.154Z,101264.34
2023-05-24T07:59:04.935Z,101249.69
2023-05-24T08:00:14.664Z,101253.34
2023-05-24T08:01:18.569Z,101247.94
2023-05-24T08:02:20.443Z,101239.63
2023-05-24T08:03:25.997Z,101245.03
2023-05-24T08:04:28.225Z,101238.31
2023-05-24T08:05:30.523Z,101245.91
2023-05-24T08:06:32.977Z,101254.00
2023-05-24T08:07:35.312Z,101238.81
2023-05-24T08:08:37.203Z,101245.91
2023-05-24T08:09:39.400Z,101246.91
2023-05-24T08:10:41.308Z,101245.91
2023-05-24T08:11:43.184Z,101237.78
2023-05-24T08:12:45.076Z,101236.94
2023-05-24T08:13:47.391Z,101236.09
2023-05-24T08:14:49.216Z,101231.34
2023-05-24T08:15:51.122Z,101234.06
2023-05-24T08:16:52.932Z,101231.34
2023-05-24T08:17:55.016Z,101225.94
2023-05-24T08:18:57.094Z,101200.88
2023-05-24T08:19:58.995Z,101217.34
2023-05-24T08:21:01.132Z,101224.91
2023-05-24T08:22:06.017Z,101227.63
2023-05-24T08:23:08.220Z,101223.91
2023-05-24T08:24:10.069Z,101222.00
2023-05-24T08:25:11.962Z,101212.13
2023-05-24T08:26:13.961Z,101218.50
2023-05-24T08:27:15.897Z,101218.50
2023-05-24T08:28:18.289Z,101223.03
2023-05-24T08:29:20.196Z,101220.16
2023-05-24T08:30:22.032Z,101223.91
2023-05-24T08:31:23.929Z,101200.75
2023-05-24T08:32:27.076Z,101218.28
2023-05-24T08:33:29.931Z,101216.44
2023-05-24T08:34:31.812Z,101218.94
2023-05-24T08:35:33.777Z,101218.94
2023-05-24T08:36:35.596Z,101209.81
2023-05-24T08:37:37.538Z,101202.72
2023-05-24T08:38:39.416Z,101201.91
2023-05-24T08:39:41.531Z,101212.53
2023-05-24T08:40:43.428Z,101207.97
2023-05-24T08:41:54.276Z,101200.88
2023-05-24T08:43:03.139Z,101215.34
2023-05-24T08:44:07.573Z,101210.31
2023-05-24T08:45:13.046Z,101209.44
2023-05-24T08:46:17.375Z,101210.31
2023-05-24T08:47:22.350Z,101203.22
2023-05-24T08:48:25.793Z,101204.91
2023-05-24T08:49:32.162Z,101190.50
2023-05-24T08:50:35.966Z,101204.72
2023-05-24T08:51:39.760Z,101204.91
2023-05-24T08:52:42.669Z,101194.94
2023-05-24T08:53:48.875Z,101195.75
2023-05-24T08:54:53.213Z,101181.94
2023-05-24T08:55:56.229Z,101197.44
2023-05-24T08:56:59.421Z,101195.75
2023-05-24T08:58:01.373Z,101193.72
2023-05-24T08:59:03.293Z,101192.88
2023-05-24T09:00:08.337Z,101184.94
2023-05-24T09:01:13.214Z,101183.25
2023-05-24T09:02:17.610Z,101186.63
2023-05-24T09:03:20.081Z,101174.78
2023-05-24T09:04:22.946Z,101183.91
2023-05-24T09:05:26.117Z,101179.34
2023-05-24T09:06:27.974Z,101174.78
2023-05-24T09:07:32.392Z,101176.66
2023-05-24T09:08:37.437Z,101166.66
2023-05-24T09:09:45.301Z,101166.66
2023-05-24T09:10:54.935Z,101159.19
2023-05-24T09:12:02.217Z,101153.78
2023-05-24T09:13:07.200Z,101160.88
2023-05-24T09:14:09.643Z,101160.06
2023-05-24T09:15:11.905Z,101146.69
2023-05-24T09:16:15.290Z,101155.66
2023-05-24T09:17:17.481Z,101156.84
2023-05-24T09:18:19.531Z,101142.66
2023-05-24T09:19:21.413Z,101149.28
2023-05-24T09:20:23.410Z,101152.47
2023-05-24T09:21:25.766Z,101147.72
2023-05-24T09:22:30.711Z,101149.59
2023-05-24T09:23:33.053Z,101154.81
2023-05-24T09:24:41.804Z,101142.97
2023-05-24T09:25:48.055Z,101148.22
2023-05-24T09:26:51.056Z,101145.31
2023-05-24T09:27:53.829Z,101152.97
2023-05-24T09:28:56.640Z,101150.06
2023-05-24T09:29:58.742Z,101148.22
2023-05-24T09:31:05.522Z,101150.06
2023-05-24T09:32:09.357Z,101157.81
2023-05-24T09:33:13.476Z,101158.81
2023-05-24T09:34:16.680Z,101153.41
2023-05-24T09:35:18.967Z,101143.44
2023-05-24T09:36:20.988Z,101151.56
2023-05-24T09:37:29.897Z,101151.72
2023-05-24T09:38:36.532Z,101135.13
2023-05-24T09:39:39.417Z,101132.44
2023-05-24T09:40:41.803Z,101130.56
2023-05-24T09:41:44.039Z,101129.72
2023-05-24T09:42:46.555Z,101133.28
2023-05-24T09:43:50.002Z,101129.25
2023-05-24T09:45:07.919Z,101128.53
2023-05-24T09:46:10.814Z,101133.56
2023-05-24T09:47:13.090Z,101132.91
2023-05-24T09:48:18.042Z,101127.66
2023-05-24T09:49:21.726Z,101122.63
2023-05-24T09:50:23.595Z,101124.97
2023-05-24T09:51:26.225Z,101124.31
2023-05-24T09:52:28.523Z,101116.84
2023-05-24T09:53:32.450Z,101100.97
2023-05-24T09:54:34.500Z,101114.13
2023-05-24T09:55:37.497Z,101113.31
2023-05-24T09:56:40.710Z,101111.44
2023-05-24T09:57:50.537Z,101099.97
2023-05-24T09:58:52.513Z,101098.28
2023-05-24T09:59:54.415Z,101106.03
2023-05-24T10:01:07.691Z,101102.28
2023-05-24T10:02:11.066Z,101101.91
2023-05-24T10:03:13.570Z,101098.56
2023-05-24T10:04:15.761Z,101095.84
2023-05-24T10:05:17.685Z,101101.25
2023-05-24T10:06:20.285Z,101095.84
2023-05-24T10:07:22.669Z,101100.44
2023-05-24T10:08:24.691Z,101096.88
2023-05-24T10:09:33.756Z,101103.97
2023-05-24T10:10:35.751Z,101101.09
2023-05-24T10:11:37.639Z,101094.00
2023-05-24T10:12:44.066Z,101100.25
2023-05-24T10:13:46.934Z,101101.09
2023-05-24T10:14:50.153Z,101094.81
2023-05-24T10:15:52.070Z,101086.25
2023-05-24T10:16:54.439Z,101094.81
2023-05-24T10:17:57.267Z,101091.09
2023-05-24T10:18:59.620Z,101091.09
2023-05-24T10:20:02.271Z,101084.00
2023-05-24T10:21:09.654Z,101078.59
2023-05-24T10:22:14.281Z,101081.13
2023-05-24T10:23:20.912Z,101085.69
2023-05-24T10:24:26.058Z,101079.25
2023-05-24T10:25:30.014Z,101077.41
2023-05-24T10:26:33.858Z,101085.50
2023-05-24T10:27:38.324Z,101075.50
2023-05-24T10:28:55.111Z,101067.41
2023-05-24T10:29:59.258Z,101068.72
2023-05-24T10:31:07.463Z,101068.25
2023-05-24T10:32:09.563Z,101066.19
2023-05-24T10:33:14.173Z,101061.97
2023-05-24T10:34:16.814Z,101063.66
2023-05-24T10:35:20.387Z,101058.25
2023-05-24T10:36:22.851Z,101068.25
2023-05-24T10:37:25.551Z,101067.41
2023-05-24T10:38:27.405Z,101061.97
2023-05-24T10:39:29.498Z,101055.75
2023-05-24T10:40:32.294Z,101051.16
2023-05-24T10:41:44.236Z,101046.13
2023-05-24T10:42:47.554Z,101043.69
2023-05-24T10:44:07.948Z,101064.31
2023-05-24T10:45:23.131Z,101044.66
2023-05-24T10:46:26.082Z,101047.53
2023-05-24T10:47:28.833Z,101050.44
2023-05-24T10:48:31.253Z,101052.50
2023-05-24T10:49:33.054Z,101044.38
2023-05-24T10:50:35.034Z,101043.69
2023-05-24T10:51:40.723Z,101039.31
2023-05-24T10:52:42.590Z,101035.28
2023-05-24T10:53:44.433Z,101040.97
2023-05-24T10:55:09.857Z,101039.63
2023-05-24T10:56:13.739Z,101040.28
2023-05-24T10:57:24.608Z,101035.03
2023-05-24T10:58:32.989Z,101031.28
2023-05-24T10:59:41.265Z,101032.31
2023-05-24T11:00:44.587Z,101030.47
2023-05-24T11:01:55.450Z,101032.31
2023-05-24T11:03:09.087Z,101028.59
2023-05-24T11:04:19.007Z,101031.13
2023-05-24T11:05:21.132Z,101033.84
2023-05-24T11:06:49.744Z,101017.25
2023-05-24T11:07:59.294Z,101026.19
2023-05-24T11:09:01.214Z,101020.66
2023-05-24T11:10:09.597Z,101018.13
2023-05-24T11:11:26.715Z,101012.06
2023-05-24T11:12:34.681Z,101019.28
2023-05-24T11:13:38.077Z,101023.00
2023-05-24T11:14:40.212Z,101010.19
2023-05-24T11:15:51.343Z,101003.09
2023-05-24T11:16:53.343Z,101000.41
2023-05-24T11:18:12.357Z,101005.91
2023-05-24T11:19:22.409Z,101019.94
2023-05-24T11:20:24.490Z,101014.69
2023-05-24T11:21:28.010Z,101013.22
2023-05-24T11:22:31.700Z,101014.03
2023-05-24T11:23:35.400Z,101015.06
2023-05-24T11:24:38.635Z,101011.53
2023-05-24T11:25:40.612Z,100998.72
2023-05-24T11:26:44.143Z,101016.09
2023-05-24T11:27:46.828Z,101007.97
2023-05-24T11:28:49.633Z,101014.59
2023-05-24T11:29:52.197Z,101007.97
2023-05-24T11:30:54.022Z,101001.72
2023-05-24T11:31:58.433Z,101009.00
2023-05-24T11:33:02.411Z,101010.50
2023-05-24T11:34:04.320Z,101002.38
2023-05-24T11:35:09.094Z,100998.00
2023-05-24T11:36:11.134Z,100994.25
2023-05-24T11:37:15.274Z,100999.66
2023-05-24T11:38:23.411Z,101006.75
2023-05-24T11:39:31.555Z,100980.53
2023-05-24T11:40:34.576Z,100999.03
2023-05-24T11:41:38.235Z,100999.31
2023-05-24T11:42:41.129Z,100997.63
2023-05-24T11:43:43.067Z,100998.66
2023-05-24T11:44:44.974Z,100997.63
2023-05-24T11:45:50.056Z,101000.50
2023-05-24T11:46:59.471Z,101003.19
2023-05-24T11:48:05.457Z,100999.31
2023-05-24T11:49:07.352Z,100999.31
2023-05-24T11:50:09.631Z,100996.63
2023-05-24T11:51:11.772Z,101000.31
2023-05-24T11:52:14.822Z,100994.06
2023-05-24T11:53:19.228Z,100998.81
2023-05-24T11:54:22.431Z,100989.50
2023-05-24T11:55:24.773Z,100984.25
2023-05-24T11:56:31.570Z,100980.53
2023-05-24T11:57:40.248Z,100992.22
2023-05-24T11:58:48.819Z,100977.69
2023-05-24T11:59:50.800Z,100981.03
2023-05-24T12:00:53.000Z,100984.78
2023-05-24T12:02:00.244Z,100975.13
2023-05-24T12:03:07.514Z,100981.03
2023-05-24T12:04:10.167Z,100986.44
2023-05-24T12:05:14.237Z,100979.34
2023-05-24T12:06:16.073Z,100978.50
2023-05-24T12:07:18.039Z,100983.91
2023-05-24T12:08:20.512Z,100988.50